Time;durP1;ratioP1;P1;durP2;ratioP2;P2;SDS_P1;SDS_P2;PMS_P1;PMS_P2;Temp;Humidity;BMP_temperature;BMP_pressure;BME280_temperature;BME280_humidity;BME280_pressure;Samples;Min_cycle;Max_cycle;Signal;HPM_P1;HPM_P2
2023/11/04 00:01:45;;;;;;;1.90;1.73;;;;;;;3.86;100.00;96018.09;5058881;28;20230;-79
2023/11/04 00:04:12;;;;;;;1.63;1.50;;;;;;;3.84;100.00;96020.00;5058773;28;20212;-79
2023/11/04 00:06:39;;;;;;;2.57;1.97;;;;;;;3.80;100.00;96022.97;5059377;28;20696;-79
2023/11/04 00:09:06;;;;;;;2.67;1.90;;;;;;;3.81;100.00;96019.41;5059181;28;20218;-79
2023/11/04 00:11:32;;;;;;;2.67;1.90;;;;;;;3.76;100.00;96017.13;5058793;28;20688;-79
2023/11/04 00:13:59;;;;;;;4.23;2.13;;;;;;;3.74;100.00;96023.44;5058523;28;20211;-79
2023/11/04 00:16:25;;;;;;;2.53;2.07;;;;;;;3.72;100.00;96020.91;5058636;28;20217;-79
2023/11/04 00:18:52;;;;;;;2.17;1.60;;;;;;;3.70;100.00;96020.22;5058928;28;20206;-79
2023/11/04 00:21:20;;;;;;;5.23;2.00;;;;;;;3.65;100.00;96024.94;5058629;28;20239;-79
2023/11/04 00:23:47;;;;;;;4.33;2.23;;;;;;;3.64;100.00;96025.91;5059085;28;20220;-79
2023/11/04 00:26:13;;;;;;;4.10;1.93;;;;;;;3.59;100.00;96029.78;5059015;28;20211;-81
2023/11/04 00:28:40;;;;;;;4.70;2.30;;;;;;;3.57;100.00;96032.53;5058109;28;20228;-79
2023/11/04 00:31:07;;;;;;;2.73;1.97;;;;;;;3.52;100.00;96034.66;5059020;28;20226;-79
2023/11/04 00:33:34;;;;;;;2.00;1.83;;;;;;;3.54;100.00;96040.59;5058690;28;20286;-79
2023/11/04 00:36:01;;;;;;;4.10;2.33;;;;;;;3.62;100.00;96048.66;5058483;28;20217;-79
2023/11/04 00:38:29;;;;;;;2.73;1.93;;;;;;;3.60;100.00;96041.91;5058789;28;20209;-79
2023/11/04 00:40:55;;;;;;;1.93;1.70;;;;;;;3.57;100.00;96042.97;5058830;28;20234;-79
2023/11/04 00:43:22;;;;;;;2.90;1.80;;;;;;;3.56;100.00;96051.72;5059412;28;20320;-79
2023/11/04 00:45:48;;;;;;;3.43;1.73;;;;;;;3.48;100.00;96054.09;5059577;28;20210;-79
2023/11/04 00:48:15;;;;;;;2.03;1.50;;;;;;;3.47;100.00;96057.66;5058878;28;20229;-79
2023/11/04 00:50:41;;;;;;;6.57;3.53;;;;;;;3.43;100.00;96055.38;5059451;28;20662;-79
2023/11/04 00:53:08;;;;;;;3.03;1.70;;;;;;;3.36;100.00;96062.81;5058625;28;20209;-79
2023/11/04 00:55:36;;;;;;;3.30;1.77;;;;;;;3.33;100.00;96065.69;5059495;28;20253;-79
2023/11/04 00:58:02;;;;;;;1.93;1.60;;;;;;;3.27;100.00;96055.69;5058132;28;20690;-79
2023/11/04 01:00:29;;;;;;;6.13;1.77;;;;;;;3.19;100.00;96055.41;5058304;28;20677;-79
2023/11/04 01:02:56;;;;;;;3.60;1.60;;;;;;;3.10;100.00;96053.47;5058517;28;20227;-79
2023/11/04 01:05:23;;;;;;;3.13;2.03;;;;;;;3.17;100.00;96049.47;5058922;28;20221;-79
2023/11/04 01:07:49;;;;;;;2.77;1.70;;;;;;;3.13;100.00;96050.63;5058572;28;20238;-78
2023/11/04 01:10:16;;;;;;;2.27;1.97;;;;;;;3.12;100.00;96048.16;5058662;28;20259;-79
2023/11/04 01:12:44;;;;;;;2.60;1.67;;;;;;;3.17;100.00;96049.47;5056398;28;20226;-79
2023/11/04 01:15:11;;;;;;;2.33;1.80;;;;;;;3.23;100.00;96041.19;5056164;28;20311;-79
2023/11/04 01:17:37;;;;;;;2.47;2.00;;;;;;;3.32;100.00;96040.53;5056711;28;20204;-79
2023/11/04 01:20:05;;;;;;;2.50;1.93;;;;;;;3.43;100.00;96044.94;5056745;28;20213;-79
2023/11/04 01:22:32;;;;;;;2.63;2.10;;;;;;;3.58;100.00;96039.41;5056359;28;20238;-79
2023/11/04 01:24:58;;;;;;;4.30;2.20;;;;;;;3.75;100.00;96049.44;5055933;28;20264;-80
2023/11/04 01:27:25;;;;;;;2.40;2.03;;;;;;;3.87;100.00;96045.91;5057063;28;20244;-79
2023/11/04 01:29:52;;;;;;;3.80;2.27;;;;;;;4.02;100.00;96049.94;5055928;28;20715;-79
2023/11/04 01:32:19;;;;;;;2.30;2.10;;;;;;;4.13;100.00;96043.91;5056657;28;20230;-79
2023/11/04 01:34:45;;;;;;;3.83;2.43;;;;;;;4.17;100.00;96040.91;5055827;28;20673;-81
2023/11/04 01:37:12;;;;;;;5.83;2.93;;;;;;;4.22;100.00;96040.59;5056431;28;20214;-79
2023/11/04 01:39:39;;;;;;;2.80;2.50;;;;;;;4.27;100.00;96039.28;5056422;28;20214;-79
2023/11/04 01:42:05;;;;;;;4.50;3.10;;;;;;;4.33;100.00;96033.56;5057024;28;20244;-79
2023/11/04 01:44:32;;;;;;;4.03;2.93;;;;;;;4.41;100.00;96039.03;5058897;28;20220;-79
2023/11/04 01:47:00;;;;;;;5.00;3.47;;;;;;;4.42;100.00;96035.47;5057705;28;20215;-80
2023/11/04 01:49:27;;;;;;;4.10;2.80;;;;;;;4.48;100.00;96037.63;5062468;28;20676;-80
2023/11/04 01:51:55;;;;;;;4.23;2.80;;;;;;;4.51;100.00;96026.91;5064354;28;20240;-80
2023/11/04 01:54:23;;;;;;;4.17;2.77;;;;;;;4.51;100.00;96037.38;5060993;28;20293;-80
2023/11/04 01:56:53;;;;;;;4.23;3.30;;;;;;;4.56;100.00;96030.00;5059884;28;20291;-80
2023/11/04 01:59:24;;;;;;;4.77;2.90;;;;;;;4.58;100.00;96027.25;5059748;28;20215;-80
2023/11/04 02:01:51;;;;;;;4.13;2.43;;;;;;;4.61;100.00;96022.63;5057663;28;20226;-81
2023/11/04 02:04:18;;;;;;;3.77;2.73;;;;;;;4.59;100.00;96024.50;5056825;28;20211;-81
2023/11/04 02:06:45;;;;;;;4.43;2.97;;;;;;;4.51;100.00;96026.06;5056802;28;20346;-80
2023/11/04 02:09:12;;;;;;;3.87;2.20;;;;;;;4.38;100.00;96022.75;5057264;28;20227;-80
2023/11/04 02:11:40;;;;;;;2.47;2.13;;;;;;;4.24;100.00;96018.63;5059152;28;20601;-81
2023/11/04 02:14:08;;;;;;;3.27;2.20;;;;;;;4.09;100.00;96018.97;5061772;28;20634;-81
2023/11/04 02:16:35;;;;;;;2.77;2.20;;;;;;;3.98;100.00;96017.16;5060257;28;20229;-80
2023/11/04 02:19:01;;;;;;;4.17;2.20;;;;;;;3.88;100.00;96015.38;5060579;28;20211;-80
2023/11/04 02:21:29;;;;;;;2.67;2.10;;;;;;;3.89;100.00;96010.03;5060359;28;20227;-81
2023/11/04 02:23:55;;;;;;;2.60;2.10;;;;;;;3.92;100.00;96007.16;5059845;28;20564;-80
2023/11/04 02:26:22;;;;;;;4.07;2.50;;;;;;;3.94;100.00;96007.06;5060645;28;20206;-81
2023/11/04 02:28:49;;;;;;;2.27;2.07;;;;;;;3.90;100.00;96014.31;5061070;28;20235;-81
2023/11/04 02:31:15;;;;;;;4.40;2.50;;;;;;;3.83;100.00;96010.50;5061135;28;20230;-81
2023/11/04 02:33:42;;;;;;;3.40;2.13;;;;;;;3.75;100.00;96014.63;5061050;28;20209;-81
2023/11/04 02:36:09;;;;;;;3.43;2.40;;;;;;;3.70;100.00;96011.53;5061188;28;20217;-81
2023/11/04 02:38:37;;;;;;;2.83;2.20;;;;;;;3.62;100.00;96012.09;5061227;28;20228;-81
2023/11/04 02:41:03;;;;;;;3.13;2.37;;;;;;;3.52;100.00;96008.53;5060736;28;20233;-80
2023/11/04 02:43:30;;;;;;;2.77;2.27;;;;;;;3.50;100.00;96010.44;5060271;28;20309;-80
2023/11/04 02:45:56;;;;;;;4.50;2.60;;;;;;;3.48;100.00;96012.31;5060927;28;20208;-81
2023/11/04 02:48:23;;;;;;;3.33;2.80;;;;;;;3.43;100.00;96004.00;5060850;28;20236;-81
2023/11/04 02:50:49;;;;;;;4.40;2.70;;;;;;;3.34;100.00;96009.06;5060580;28;20210;-81
2023/11/04 02:53:16;;;;;;;3.70;2.67;;;;;;;3.32;100.00;96010.97;5060689;28;20231;-81
2023/11/04 02:55:44;;;;;;;5.03;3.57;;;;;;;3.26;100.00;96001.81;5060213;28;20213;-81
2023/11/04 02:58:10;;;;;;;3.27;2.73;;;;;;;3.27;100.00;96013.94;5060615;28;20210;-81
2023/11/04 03:00:36;;;;;;;5.57;3.17;;;;;;;3.21;100.00;96009.16;5059937;28;20684;-81
2023/11/04 03:03:03;;;;;;;3.90;3.20;;;;;;;3.22;100.00;96016.03;5059776;28;20211;-81
2023/11/04 03:05:30;;;;;;;5.93;3.60;;;;;;;3.21;100.00;96008.31;5059847;28;20214;-80
2023/11/04 03:07:56;;;;;;;7.53;3.60;;;;;;;3.29;100.00;95993.75;5059861;28;20574;-81
2023/11/04 03:10:23;;;;;;;5.30;3.87;;;;;;;3.26;100.00;95996.59;5058773;28;20208;-81
2023/11/04 03:12:51;;;;;;;5.77;3.90;;;;;;;3.22;100.00;95995.16;5058154;28;20324;-81
2023/11/04 03:15:17;;;;;;;4.83;3.57;;;;;;;3.13;100.00;95985.38;5058525;28;20654;-81
2023/11/04 03:17:44;;;;;;;5.80;3.57;;;;;;;3.10;100.00;95984.78;5057939;28;20211;-80
2023/11/04 03:20:11;;;;;;;4.60;3.33;;;;;;;3.02;100.00;95977.53;5058100;28;20212;-80
2023/11/04 03:22:37;;;;;;;4.83;3.73;;;;;;;2.99;100.00;95982.16;5057591;28;20233;-80
2023/11/04 03:25:05;;;;;;;6.33;4.13;;;;;;;2.99;100.00;95975.16;5059554;28;20215;-80
2023/11/04 03:27:31;;;;;;;6.30;3.77;;;;;;;2.97;100.00;95969.22;5059436;28;20250;-80
2023/11/04 03:29:59;;;;;;;4.40;3.53;;;;;;;2.96;100.00;95967.56;5059685;28;20213;-80
2023/11/04 03:32:26;;;;;;;4.13;3.73;;;;;;;2.97;100.00;95970.97;5059146;28;20240;-80
2023/11/04 03:34:52;;;;;;;5.43;3.47;;;;;;;2.98;100.00;95977.84;5058158;28;20210;-80
2023/11/04 03:37:19;;;;;;;5.33;3.40;;;;;;;2.94;100.00;95972.03;5058781;28;20698;-80
2023/11/04 03:39:46;;;;;;;4.70;3.63;;;;;;;2.96;100.00;95975.38;5058782;28;20260;-80
2023/11/04 03:42:12;;;;;;;6.43;4.00;;;;;;;2.98;100.00;95976.09;5058872;28;20716;-80
2023/11/04 03:44:39;;;;;;;5.20;3.43;;;;;;;2.93;100.00;95967.75;5058975;28;20224;-80
2023/11/04 03:47:07;;;;;;;4.87;3.50;;;;;;;2.92;100.00;95973.09;5059181;28;20217;-80
2023/11/04 03:49:33;;;;;;;6.93;3.70;;;;;;;2.88;100.00;95975.09;5058852;28;20244;-80
2023/11/04 03:52:00;;;;;;;7.03;3.80;;;;;;;2.85;100.00;95970.09;5057983;28;20237;-80
2023/11/04 03:54:26;;;;;;;5.20;3.63;;;;;;;2.86;100.00;95966.56;5057935;28;20216;-80
2023/11/04 03:56:53;;;;;;;5.80;3.10;;;;;;;2.84;100.00;95973.66;5058300;28;20221;-80
2023/11/04 03:59:19;;;;;;;6.77;3.70;;;;;;;2.87;100.00;95967.41;5057807;28;20213;-80
2023/11/04 04:01:46;;;;;;;5.53;3.43;;;;;;;2.86;100.00;95974.38;5057458;28;20283;-80
2023/11/04 04:04:13;;;;;;;5.00;3.50;;;;;;;2.88;100.00;95967.25;5057116;28;20214;-80
2023/11/04 04:06:40;;;;;;;4.83;3.47;;;;;;;2.95;100.00;95965.06;5057463;28;20213;-80
2023/11/04 04:09:06;;;;;;;4.20;3.17;;;;;;;2.97;100.00;95963.16;5057506;28;20236;-80
2023/11/04 04:11:33;;;;;;;6.63;3.80;;;;;;;2.97;100.00;95958.78;5058772;28;20229;-80
2023/11/04 04:14:00;;;;;;;4.57;3.57;;;;;;;2.95;100.00;95955.44;5058614;28;20594;-80
2023/11/04 04:16:26;;;;;;;5.73;3.77;;;;;;;2.96;100.00;95941.47;5058692;28;20220;-80
2023/11/04 04:18:53;;;;;;;4.40;3.03;;;;;;;2.88;100.00;95930.75;5062953;28;20211;-80
2023/11/04 04:21:21;;;;;;;5.23;3.53;;;;;;;2.89;100.00;95934.19;5062234;28;20326;-80
2023/11/04 04:23:48;;;;;;;4.77;3.60;;;;;;;2.89;100.00;95927.19;5060922;28;20213;-80
2023/11/04 04:26:19;;;;;;;6.67;4.47;;;;;;;2.93;100.00;95915.59;5061440;28;20580;-80
2023/11/04 04:28:46;;;;;;;5.57;4.03;;;;;;;3.03;100.00;95911.38;5060872;28;20248;-80
2023/11/04 04:31:14;;;;;;;4.47;3.13;;;;;;;2.99;100.00;95915.13;5060471;28;20237;-80
2023/11/04 04:33:40;;;;;;;5.03;3.10;;;;;;;3.08;100.00;95919.69;5059479;28;20655;-80
2023/11/04 04:36:08;;;;;;;5.80;4.13;;;;;;;3.15;100.00;95913.06;5060398;28;20317;-80
2023/11/04 04:38:36;;;;;;;6.00;4.47;;;;;;;3.17;100.00;95912.94;5059647;28;20201;-80
2023/11/04 04:41:03;;;;;;;5.23;4.07;;;;;;;3.21;100.00;95915.22;5059400;28;20241;-80
2023/11/04 04:43:29;;;;;;;7.83;4.43;;;;;;;3.27;100.00;95913.91;5057889;28;20243;-80
2023/11/04 04:45:56;;;;;;;6.90;4.40;;;;;;;3.24;100.00;95920.19;5058860;28;20212;-80
2023/11/04 04:48:22;;;;;;;5.53;3.80;;;;;;;3.21;100.00;95915.22;5059270;28;20230;-80
2023/11/04 04:50:49;;;;;;;5.63;3.60;;;;;;;3.18;100.00;95923.25;5058296;28;20213;-80
2023/11/04 04:53:15;;;;;;;3.50;2.90;;;;;;;3.09;100.00;95923.94;5058175;28;20216;-80
2023/11/04 04:55:43;;;;;;;3.70;2.93;;;;;;;3.10;100.00;95911.72;5058368;28;20211;-80
2023/11/04 04:58:10;;;;;;;4.97;3.20;;;;;;;3.10;100.00;95909.97;5057372;28;20589;-79
2023/11/04 05:00:36;;;;;;;3.67;2.80;;;;;;;3.04;100.00;95899.97;5058096;28;20212;-79
2023/11/04 05:03:05;;;;;;;3.50;2.37;;;;;;;3.02;100.00;95894.06;5057314;28;20215;-79
2023/11/04 05:05:31;;;;;;;5.27;3.33;;;;;;;3.00;100.00;95901.16;5057850;28;20207;-80
2023/11/04 05:07:58;;;;;;;4.43;3.00;;;;;;;2.97;100.00;95896.16;5058054;28;20496;-79
2023/11/04 05:10:25;;;;;;;4.03;3.10;;;;;;;2.94;100.00;95888.56;5057789;28;20230;-79
2023/11/04 05:12:52;;;;;;;3.60;3.07;;;;;;;2.99;100.00;95883.03;5053927;28;20229;-77
2023/11/04 05:15:20;;;;;;;4.80;3.37;;;;;;;2.96;100.00;95889.28;5052047;28;20547;-77
2023/11/04 05:17:48;;;;;;;4.00;2.90;;;;;;;2.94;100.00;95887.75;5055132;28;20256;-80
2023/11/04 05:20:15;;;;;;;4.67;3.47;;;;;;;2.90;100.00;95881.94;5058654;28;20255;-78
2023/11/04 05:22:41;;;;;;;4.17;3.10;;;;;;;2.84;100.00;95881.53;5058918;28;20230;-80
2023/11/04 05:25:08;;;;;;;5.13;3.40;;;;;;;2.81;100.00;95869.56;5058505;28;20687;-80
2023/11/04 05:27:35;;;;;;;6.13;3.60;;;;;;;2.79;100.00;95865.41;5058323;28;20208;-80
2023/11/04 05:30:05;;;;;;;4.90;3.30;;;;;;;2.79;100.00;95868.00;5057122;28;20371;-80
2023/11/04 05:32:33;;;;;;;5.33;3.13;;;;;;;2.73;100.00;95861.47;5057613;28;20231;-80
2023/11/04 05:34:59;;;;;;;5.37;3.37;;;;;;;2.70;100.00;95855.66;5058060;28;20231;-79
2023/11/04 05:37:27;;;;;;;5.07;3.57;;;;;;;2.69;100.00;95865.25;5057889;28;20208;-81
2023/11/04 05:39:53;;;;;;;4.73;3.80;;;;;;;2.67;100.00;95861.94;5057441;28;20573;-79
2023/11/04 05:42:23;;;;;;;4.60;3.63;;;;;;;2.66;100.00;95855.06;5058253;28;20604;-79
2023/11/04 05:44:51;;;;;;;5.00;3.43;;;;;;;2.64;100.00;95854.31;5058831;28;20210;-78
2023/11/04 05:47:18;;;;;;;5.40;3.87;;;;;;;2.64;100.00;95854.31;5059053;28;20568;-76
2023/11/04 05:49:45;;;;;;;3.97;3.10;;;;;;;2.65;100.00;95853.41;5057798;28;20229;-79
2023/11/04 05:52:11;;;;;;;5.30;3.70;;;;;;;2.64;100.00;95843.88;5061756;28;20236;-80
2023/11/04 05:54:38;;;;;;;3.73;2.90;;;;;;;2.64;100.00;95840.47;5061851;28;20209;-80
2023/11/04 05:57:05;;;;;;;4.80;3.20;;;;;;;2.62;100.00;95837.97;5060687;28;20218;-78
2023/11/04 05:59:31;;;;;;;3.37;2.80;;;;;;;2.66;100.00;95825.53;5057050;28;20207;-79
2023/11/04 06:01:57;;;;;;;3.43;3.00;;;;;;;2.66;100.00;95831.59;5055402;28;20233;-78
2023/11/04 06:04:25;;;;;;;4.67;2.97;;;;;;;2.71;100.00;95829.47;5056228;28;20385;-79
2023/11/04 06:06:52;;;;;;;3.37;2.77;;;;;;;2.66;100.00;95839.41;5058321;28;20562;-78
2023/11/04 06:09:18;;;;;;;4.30;2.83;;;;;;;2.64;100.00;95830.84;5057276;28;20233;-79
2023/11/04 06:11:45;;;;;;;4.63;3.23;;;;;;;2.68;100.00;95836.66;5057917;28;20234;-79
2023/11/04 06:14:12;;;;;;;4.57;3.30;;;;;;;2.69;100.00;95833.97;5058259;28;20210;-78
2023/11/04 06:16:39;;;;;;;4.73;3.17;;;;;;;2.72;100.00;95833.75;5057783;28;20258;-77
2023/11/04 06:19:05;;;;;;;4.37;3.20;;;;;;;2.72;100.00;95831.13;5058376;28;20201;-80
2023/11/04 06:21:33;;;;;;;4.50;3.33;;;;;;;2.73;100.00;95827.56;5060201;28;20260;-80
2023/11/04 06:24:00;;;;;;;3.70;3.17;;;;;;;2.70;100.00;95811.34;5060583;28;20238;-80
2023/11/04 06:26:26;;;;;;;4.20;3.43;;;;;;;2.70;100.00;95817.34;5060728;28;20211;-80
2023/11/04 06:28:53;;;;;;;5.03;3.53;;;;;;;2.71;100.00;95810.38;5061356;28;20228;-79
2023/11/04 06:31:21;;;;;;;5.47;3.80;;;;;;;2.72;100.00;95818.09;5060330;28;20230;-80
2023/11/04 06:33:47;;;;;;;6.67;4.33;;;;;;;2.76;100.00;95809.06;5061298;28;20712;-80
2023/11/04 06:36:14;;;;;;;6.27;3.90;;;;;;;2.81;100.00;95795.72;5061233;28;20217;-80
2023/11/04 06:38:42;;;;;;;6.50;3.63;;;;;;;2.83;100.00;95799.03;5061813;28;20292;-80
2023/11/04 06:41:13;;;;;;;7.53;3.83;;;;;;;2.85;100.00;95791.91;5061397;28;20237;-80
2023/11/04 06:43:40;;;;;;;4.97;3.80;;;;;;;2.89;100.00;95799.38;5060872;28;20209;-80
2023/11/04 06:46:08;;;;;;;5.93;3.97;;;;;;;2.92;100.00;95793.94;5061576;28;20211;-80
2023/11/04 06:48:35;;;;;;;4.87;3.47;;;;;;;3.01;100.00;95788.00;5060674;28;20260;-80
2023/11/04 06:51:01;;;;;;;5.37;3.67;;;;;;;3.06;100.00;95785.88;5061339;28;20233;-80
2023/11/04 06:53:28;;;;;;;3.63;3.30;;;;;;;3.14;100.00;95778.31;5060675;28;20733;-80
2023/11/04 06:55:58;;;;;;;6.60;3.83;;;;;;;3.20;100.00;95780.47;5061142;28;20215;-80
2023/11/04 06:58:26;;;;;;;4.80;3.50;;;;;;;3.21;100.00;95769.06;5065555;28;20210;-79
2023/11/04 07:00:53;;;;;;;5.00;3.90;;;;;;;3.25;100.00;95759.22;5072796;28;20285;-80
2023/11/04 07:03:19;;;;;;;4.53;3.50;;;;;;;3.33;100.00;95760.28;5080380;28;20328;-80
2023/11/04 07:05:46;;;;;;;6.10;3.77;;;;;;;3.36;100.00;95767.84;5080380;28;20186;-79
2023/11/04 07:08:13;;;;;;;4.37;3.30;;;;;;;3.42;100.00;95759.53;5080400;28;20230;-79
2023/11/04 07:10:40;;;;;;;5.07;3.37;;;;;;;3.43;100.00;95755.97;5080268;28;20222;-79
2023/11/04 07:13:11;;;;;;;4.30;2.90;;;;;;;3.49;100.00;95758.09;5080204;28;20250;-79
2023/11/04 07:15:38;;;;;;;4.90;3.13;;;;;;;3.55;100.00;95762.84;5080089;28;20212;-79
2023/11/04 07:18:07;;;;;;;5.30;2.87;;;;;;;3.59;100.00;95764.28;5079864;28;20193;-79
2023/11/04 07:20:34;;;;;;;4.80;3.10;;;;;;;3.61;100.00;95759.75;5079868;28;20246;-79
2023/11/04 07:23:00;;;;;;;4.03;2.70;;;;;;;3.67;100.00;95746.19;5071011;28;20206;-80
2023/11/04 07:25:27;;;;;;;3.10;2.63;;;;;;;3.74;100.00;95742.16;5065541;28;20222;-79
2023/11/04 07:27:54;;;;;;;5.77;2.53;;;;;;;3.88;100.00;95734.06;5073103;28;20207;-79
2023/11/04 07:30:21;;;;;;;3.73;3.07;;;;;;;4.05;100.00;95733.53;5079787;28;20311;-80
2023/11/04 07:32:48;;;;;;;3.23;2.57;;;;;;;4.23;100.00;95732.00;5079413;28;20254;-79
2023/11/04 07:35:14;;;;;;;3.80;2.60;;;;;;;4.37;100.00;95726.47;5078402;28;20233;-79
2023/11/04 07:37:41;;;;;;;2.80;2.37;;;;;;;4.45;100.00;95729.28;5079490;28;20265;-79
2023/11/04 07:40:09;;;;;;;2.53;2.03;;;;;;;4.55;100.00;95717.09;5069138;28;20215;-80
2023/11/04 07:42:36;;;;;;;4.40;2.70;;;;;;;4.65;100.00;95704.88;5075316;28;20218;-80
2023/11/04 07:45:04;;;;;;;2.40;2.20;;;;;;;4.70;100.00;95702.72;5078927;28;20259;-80
2023/11/04 07:47:33;;;;;;;2.30;1.90;;;;;;;4.76;100.00;95698.78;5079446;28;20192;-80
2023/11/04 07:49:59;;;;;;;2.40;1.80;;;;;;;4.81;100.00;95707.88;5079785;28;20246;-80
2023/11/04 07:52:26;;;;;;;3.20;1.70;;;;;;;4.85;100.00;95698.81;5078376;28;20211;-80
2023/11/04 07:54:53;;;;;;;2.50;2.07;;;;;;;4.89;100.00;95702.81;5078425;28;20207;-80
2023/11/04 07:57:20;;;;;;;1.93;1.77;;;;;;;4.93;100.00;95688.53;5079069;28;20198;-79
2023/11/04 07:59:46;;;;;;;2.57;1.97;;;;;;;5.04;100.00;95691.06;5079218;28;20262;-79
2023/11/04 08:02:13;;;;;;;2.83;1.70;;;;;;;5.06;100.00;95691.75;5077075;28;20226;-80
2023/11/04 08:04:40;;;;;;;1.60;1.50;;;;;;;5.12;100.00;95679.94;5069441;28;20215;-80
2023/11/04 08:07:09;;;;;;;3.43;1.70;;;;;;;5.20;100.00;95685.31;5077275;28;20273;-80
2023/11/04 08:09:35;;;;;;;1.87;1.40;;;;;;;5.27;100.00;95679.44;5074372;28;20220;-78
2023/11/04 08:12:02;;;;;;;2.80;1.60;;;;;;;5.33;100.00;95686.75;5079238;28;20223;-78
2023/11/04 08:14:28;;;;;;;2.10;1.60;;;;;;;5.39;100.00;95680.97;5078613;28;20207;-80
2023/11/04 08:16:55;;;;;;;2.90;1.50;;;;;;;5.50;100.00;95693.94;5075403;28;20252;-80
2023/11/04 08:19:21;;;;;;;2.13;1.47;;;;;;;5.47;100.00;95694.22;5066801;28;20210;-80
2023/11/04 08:21:51;;;;;;;2.10;1.50;;;;;;;5.51;100.00;95695.59;5075039;28;20228;-81
2023/11/04 08:24:18;;;;;;;1.73;1.53;;;;;;;5.57;100.00;95689.81;5069403;28;20208;-80
2023/11/04 08:26:44;;;;;;;2.10;1.90;;;;;;;5.73;100.00;95684.88;5078563;28;20192;-81
2023/11/04 08:29:11;;;;;;;1.83;1.63;;;;;;;5.74;100.00;95681.31;5078803;28;20255;-81
2023/11/04 08:31:37;;;;;;;2.00;1.80;;;;;;;5.81;100.00;95676.38;5078765;28;20231;-81
2023/11/04 08:34:04;;;;;;;2.13;1.90;;;;;;;5.88;100.00;95657.38;5078688;28;20188;-81
2023/11/04 08:36:30;;;;;;;2.40;1.67;;;;;;;6.00;100.00;95655.44;5078681;28;20188;-81
2023/11/04 08:38:59;;;;;;;1.97;1.80;;;;;;;6.14;100.00;95653.22;5077912;28;20271;-81
2023/11/04 08:41:25;;;;;;;1.70;1.40;;;;;;;6.24;100.00;95648.78;5078359;28;20236;-81
2023/11/04 08:43:52;;;;;;;1.73;1.47;;;;;;;6.40;100.00;95642.97;5078020;28;20227;-81
2023/11/04 08:46:19;;;;;;;3.83;1.50;;;;;;;6.49;100.00;95627.22;5078213;28;20184;-81
2023/11/04 08:48:45;;;;;;;1.70;1.57;;;;;;;6.60;100.00;95629.66;5077613;28;20276;-81
2023/11/04 08:51:12;;;;;;;1.57;1.40;;;;;;;6.74;100.00;95621.34;5075756;28;20252;-81
2023/11/04 08:53:38;;;;;;;2.00;1.43;;;;;;;6.92;100.00;95614.34;5076823;28;20263;-81
2023/11/04 08:56:08;;;;;;;1.57;1.23;;;;;;;7.02;100.00;95620.38;5078181;28;20181;-82
2023/11/04 08:58:35;;;;;;;2.20;1.77;;;;;;;7.07;100.00;95612.88;5078439;28;20197;-80
2023/11/04 09:01:02;;;;;;;2.47;1.13;;;;;;;7.10;100.00;95606.53;5077649;28;20211;-80
2023/11/04 09:03:29;;;;;;;2.03;1.27;;;;;;;7.24;100.00;95609.50;5077375;28;20232;-80
2023/11/04 09:05:55;;;;;;;1.80;1.33;;;;;;;7.32;100.00;95607.78;5077413;28;20252;-80
2023/11/04 09:08:22;;;;;;;1.47;1.30;;;;;;;7.32;100.00;95596.44;5070814;28;20204;-81
2023/11/04 09:10:49;;;;;;;1.63;1.23;;;;;;;7.34;100.00;95602.38;5068330;28;20237;-81
2023/11/04 09:13:16;;;;;;;2.10;1.57;;;;;;;7.42;100.00;95602.47;5077297;28;20208;-80
2023/11/04 09:15:43;;;;;;;1.70;1.33;;;;;;;7.45;100.00;95602.16;5077708;28;20206;-80
2023/11/04 09:18:09;;;;;;;1.57;1.27;;;;;;;7.52;100.00;95597.97;5077721;28;20192;-80
2023/11/04 09:20:36;;;;;;;1.47;1.13;;;;;;;7.67;100.00;95596.47;5076975;28;20198;-80
2023/11/04 09:23:02;;;;;;;1.23;1.13;;;;;;;7.80;100.00;95589.03;5077433;28;20273;-80
2023/11/04 09:25:29;;;;;;;1.43;1.07;;;;;;;7.88;100.00;95583.84;5076985;28;20204;-80
2023/11/04 09:27:55;;;;;;;1.37;1.00;;;;;;;7.94;100.00;95573.56;5076996;28;20200;-80
2023/11/04 09:30:23;;;;;;;5.47;3.73;;;;;;;8.06;100.00;95582.03;5072948;28;20234;-80
2023/11/04 09:32:50;;;;;;;2.17;1.30;;;;;;;8.15;100.00;95566.16;5068825;28;20228;-80
2023/11/04 09:35:16;;;;;;;1.20;1.10;;;;;;;8.23;100.00;95553.09;5069916;28;20208;-80
2023/11/04 09:37:44;;;;;;;1.20;1.10;;;;;;;8.31;100.00;95550.53;5071609;28;20268;-81
2023/11/04 09:40:12;;;;;;;0.80;0.80;;;;;;;8.42;100.00;95549.44;5052309;28;20217;-80
2023/11/04 09:42:39;;;;;;;1.20;1.10;;;;;;;8.43;100.00;95543.19;5051882;28;20709;-80
2023/11/04 09:45:07;;;;;;;2.30;0.90;;;;;;;8.45;100.00;95544.69;5061400;28;20212;-80
2023/11/04 09:47:35;;;;;;;1.53;1.00;;;;;;;8.61;100.00;95536.03;5076711;28;20203;-80
2023/11/04 09:50:02;;;;;;;1.20;1.07;;;;;;;8.73;100.00;95524.25;5076724;28;20221;-80
2023/11/04 09:52:29;;;;;;;1.97;1.20;;;;;;;8.82;100.00;95520.69;5076710;28;20228;-80
2023/11/04 09:54:57;;;;;;;1.20;0.90;;;;;;;8.86;100.00;95519.38;5073722;28;20276;-80
2023/11/04 09:57:24;;;;;;;0.87;0.87;;;;;;;8.90;100.00;95515.44;5060939;28;20256;-80
2023/11/04 09:59:51;;;;;;;1.20;0.83;;;;;;;8.97;100.00;95512.03;5072339;28;20264;-80
2023/11/04 10:02:18;;;;;;;1.53;0.70;;;;;;;9.14;100.00;95500.56;5068751;28;20321;-80
2023/11/04 10:04:45;;;;;;;1.30;0.90;;;;;;;9.23;100.00;95485.59;5070838;28;20194;-81
2023/11/04 10:07:12;;;;;;;1.30;0.80;;;;;;;9.31;100.00;95485.59;5058969;28;20214;-80
2023/11/04 10:09:38;;;;;;;0.97;0.70;;;;;;;9.42;100.00;95470.28;5052430;28;20741;-79
2023/11/04 10:12:05;;;;;;;0.80;0.70;;;;;;;9.46;100.00;95465.50;5051687;28;20236;-80
2023/11/04 10:14:32;;;;;;;1.17;0.70;;;;;;;9.49;100.00;95467.84;5051615;28;20207;-80
2023/11/04 10:16:59;;;;;;;0.70;0.70;;;;;;;9.57;100.00;95462.56;5051633;28;20224;-80
2023/11/04 10:19:26;;;;;;;0.93;0.80;;;;;;;9.60;100.00;95449.06;5051766;28;20267;-80
2023/11/04 10:21:53;;;;;;;0.63;0.60;;;;;;;9.67;100.00;95439.50;5051519;28;20250;-80
2023/11/04 10:24:21;;;;;;;1.17;0.70;;;;;;;9.73;100.00;95442.28;5051589;28;20214;-79
2023/11/04 10:26:48;;;;;;;0.70;0.70;;;;;;;9.80;100.00;95426.63;5051588;28;20432;-79
2023/11/04 10:29:14;;;;;;;1.03;0.60;;;;;;;9.83;100.00;95415.72;5051853;28;20208;-79
2023/11/04 10:31:42;;;;;;;1.00;0.60;;;;;;;9.88;100.00;95387.03;5054132;28;20235;-80
2023/11/04 10:34:10;;;;;;;1.20;0.80;;;;;;;9.95;100.00;95390.66;5056438;28;20213;-82
2023/11/04 10:36:38;;;;;;;1.47;0.77;;;;;;;9.95;100.00;95382.72;5056143;28;20204;-81
2023/11/04 10:39:09;;;;;;;0.87;0.87;;;;;;;9.97;100.00;95380.78;5056618;28;20231;-81
2023/11/04 10:41:43;;;;;;;0.83;0.73;;;;;;;9.97;100.00;95386.84;5059987;28;20223;-81
2023/11/04 10:44:15;;;;;;;0.93;0.70;;;;;;;9.99;100.00;95368.22;5055129;28;20217;-82
2023/11/04 10:46:50;;;;;;;1.10;0.70;;;;;;;9.98;98.22;95346.28;5054922;28;20272;-80
2023/11/04 10:49:22;;;;;;;1.10;0.80;;;;;;;10.03;100.00;95359.00;5054962;28;20219;-79
2023/11/04 10:51:55;;;;;;;0.60;0.50;;;;;;;10.08;100.00;95343.47;5055383;28;20239;-82
2023/11/04 10:54:36;;;;;;;0.87;0.50;;;;;;;10.18;97.84;95330.91;5054714;28;20656;-83
2023/11/04 10:57:13;;;;;;;0.63;0.60;;;;;;;10.25;94.09;95321.31;5055313;28;20241;-81
2023/11/04 10:59:49;;;;;;;1.00;0.67;;;;;;;10.24;92.38;95309.13;5055045;28;20218;-80
2023/11/04 11:02:17;;;;;;;1.00;0.70;;;;;;;10.23;89.43;95304.84;5055251;28;20311;-82
2023/11/04 11:04:45;;;;;;;1.00;0.60;;;;;;;10.21;88.46;95293.66;5055037;28;20316;-82
2023/11/04 11:07:17;;;;;;;0.47;0.47;;;;;;;10.24;86.58;95288.00;5055739;28;20209;-82
2023/11/04 11:09:46;;;;;;;0.60;0.50;;;;;;;10.24;86.23;95294.13;5055477;28;20220;-83
2023/11/04 11:12:16;;;;;;;0.73;0.60;;;;;;;10.26;86.76;95301.84;5055601;28;20242;-82
2023/11/04 11:14:43;;;;;;;0.90;0.70;;;;;;;10.20;85.02;95294.63;5057322;28;20210;-81
2023/11/04 11:17:10;;;;;;;4.37;0.70;;;;;;;10.29;84.66;95301.50;5058194;28;20217;-81
2023/11/04 11:19:46;;;;;;;0.73;0.70;;;;;;;10.39;86.02;95304.78;5055511;28;20660;-81
2023/11/04 11:22:23;;;;;;;1.13;0.93;;;;;;;10.51;83.11;95290.19;5056359;28;20961;-81
2023/11/04 11:24:53;;;;;;;2.40;0.70;;;;;;;10.60;82.66;95295.25;5056562;28;20212;-81
2023/11/04 11:27:20;;;;;;;0.50;0.50;;;;;;;10.54;82.83;95301.22;5056586;28;20204;-81
2023/11/04 11:29:47;;;;;;;0.77;0.77;;;;;;;10.56;84.86;95308.94;5056206;28;20212;-81
2023/11/04 11:32:13;;;;;;;0.70;0.70;;;;;;;10.53;86.18;95314.59;5054535;28;20230;-81
2023/11/04 11:34:49;;;;;;;0.60;0.60;;;;;;;10.61;85.71;95302.16;5055055;28;20211;-81